sensor_id;sensor_type;location;lat;lon;timestamp;pressure;altitude;pressure_sealevel;temperature;humidity
52591;BME280;38483;42.620;25.394;2022-11-18T00:01:12;96040.28;;;9.63;89.91
52591;BME280;38483;42.620;25.394;2022-11-18T00:03:40;96042.72;;;9.66;89.66
52591;BME280;38483;42.620;25.394;2022-11-18T00:06:11;96036.25;;;9.73;88.88
52591;BME280;38483;42.620;25.394;2022-11-18T00:08:38;96041.25;;;9.76;88.35
52591;BME280;38483;42.620;25.394;2022-11-18T00:11:16;96034.41;;;9.75;87.67
52591;BME280;38483;42.620;25.394;2022-11-18T00:14:05;96041.47;;;9.58;87.10
52591;BME280;38483;42.620;25.394;2022-11-18T00:16:56;96047.66;;;9.55;88.11
52591;BME280;38483;42.620;25.394;2022-11-18T00:19:25;96029.53;;;9.41;87.83
52591;BME280;38483;42.620;25.394;2022-11-18T00:21:53;96033.41;;;9.48;87.27
52591;BME280;38483;42.620;25.394;2022-11-18T00:24:21;96021.75;;;9.27;87.35
52591;BME280;38483;42.620;25.394;2022-11-18T00:26:48;96028.38;;;9.31;88.00
52591;BME280;38483;42.620;25.394;2022-11-18T00:29:16;96035.16;;;9.18;88.67
52591;BME280;38483;42.620;25.394;2022-11-18T00:31:43;96036.50;;;9.25;88.54
52591;BME280;38483;42.620;25.394;2022-11-18T00:34:12;96037.41;;;9.24;88.67
52591;BME280;38483;42.620;25.394;2022-11-18T00:36:40;96017.91;;;9.19;87.90
52591;BME280;38483;42.620;25.394;2022-11-18T00:39:13;96039.06;;;9.25;87.63
52591;BME280;38483;42.620;25.394;2022-11-18T00:41:41;96019.31;;;9.24;87.62
52591;BME280;38483;42.620;25.394;2022-11-18T00:44:26;96029.69;;;9.38;86.51
52591;BME280;38483;42.620;25.394;2022-11-18T00:46:54;96019.75;;;9.01;88.38
52591;BME280;38483;42.620;25.394;2022-11-18T00:49:22;96022.53;;;8.98;89.81
52591;BME280;38483;42.620;25.394;2022-11-18T00:51:49;96021.94;;;8.93;89.56
52591;BME280;38483;42.620;25.394;2022-11-18T00:54:16;96022.28;;;9.02;89.71
52591;BME280;38483;42.620;25.394;2022-11-18T00:56:43;96020.59;;;9.01;88.59
52591;BME280;38483;42.620;25.394;2022-11-18T00:59:10;96031.09;;;9.14;88.02
52591;BME280;38483;42.620;25.394;2022-11-18T01:01:37;96031.72;;;9.18;87.43
52591;BME280;38483;42.620;25.394;2022-11-18T01:04:04;96031.63;;;9.19;87.27
52591;BME280;38483;42.620;25.394;2022-11-18T01:06:31;96046.47;;;9.31;86.60
52591;BME280;38483;42.620;25.394;2022-11-18T01:08:58;96039.56;;;9.16;85.71
52591;BME280;38483;42.620;25.394;2022-11-18T01:11:25;96040.22;;;8.90;85.75
52591;BME280;38483;42.620;25.394;2022-11-18T01:14:10;96044.47;;;8.75;85.93
52591;BME280;38483;42.620;25.394;2022-11-18T01:16:37;96049.25;;;8.66;86.85
52591;BME280;38483;42.620;25.394;2022-11-18T01:19:04;96000.22;;;8.35;86.73
52591;BME280;38483;42.620;25.394;2022-11-18T01:21:31;96029.78;;;8.45;86.63
52591;BME280;38483;42.620;25.394;2022-11-18T01:23:58;96035.44;;;8.36;86.55
52591;BME280;38483;42.620;25.394;2022-11-18T01:26:25;96026.94;;;8.34;86.48
52591;BME280;38483;42.620;25.394;2022-11-18T01:28:56;96026.84;;;8.35;85.61
52591;BME280;38483;42.620;25.394;2022-11-18T01:31:25;96038.00;;;8.36;85.40
52591;BME280;38483;42.620;25.394;2022-11-18T01:33:52;96040.44;;;8.39;87.19
52591;BME280;38483;42.620;25.394;2022-11-18T01:36:21;96029.53;;;8.34;87.98
52591;BME280;38483;42.620;25.394;2022-11-18T01:38:49;96024.13;;;8.38;86.79
52591;BME280;38483;42.620;25.394;2022-11-18T01:41:18;96026.47;;;8.43;87.07
52591;BME280;38483;42.620;25.394;2022-11-18T01:43:56;96015.53;;;8.53;89.21
52591;BME280;38483;42.620;25.394;2022-11-18T01:46:26;96012.78;;;8.72;89.10
52591;BME280;38483;42.620;25.394;2022-11-18T01:51:48;96007.75;;;8.55;90.11
52591;BME280;38483;42.620;25.394;2022-11-18T01:54:24;96007.31;;;8.62;90.25
52591;BME280;38483;42.620;25.394;2022-11-18T01:56:56;96000.91;;;8.54;89.85
52591;BME280;38483;42.620;25.394;2022-11-18T01:59:27;96013.97;;;8.35;91.09
52591;BME280;38483;42.620;25.394;2022-11-18T02:01:57;95985.59;;;8.02;91.42
52591;BME280;38483;42.620;25.394;2022-11-18T02:04:26;96010.22;;;8.08;92.41
52591;BME280;38483;42.620;25.394;2022-11-18T02:06:53;96015.22;;;8.11;92.55
52591;BME280;38483;42.620;25.394;2022-11-18T02:09:21;96013.16;;;8.17;90.99
52591;BME280;38483;42.620;25.394;2022-11-18T02:11:49;95997.19;;;8.11;91.33
52591;BME280;38483;42.620;25.394;2022-11-18T02:14:29;96007.94;;;8.19;89.15
52591;BME280;38483;42.620;25.394;2022-11-18T02:34:02;96010.06;;;8.11;89.68
52591;BME280;38483;42.620;25.394;2022-11-18T02:36:48;96016.31;;;8.22;89.76
52591;BME280;38483;42.620;25.394;2022-11-18T02:42:16;95998.78;;;8.13;88.05
52591;BME280;38483;42.620;25.394;2022-11-18T02:44:48;96006.97;;;8.04;89.06
52591;BME280;38483;42.620;25.394;2022-11-18T02:47:17;96014.16;;;7.82;88.80
52591;BME280;38483;42.620;25.394;2022-11-18T02:49:50;96016.00;;;7.80;88.14
52591;BME280;38483;42.620;25.394;2022-11-18T02:52:20;96016.44;;;7.71;88.73
52591;BME280;38483;42.620;25.394;2022-11-18T02:54:49;96004.50;;;7.70;88.61
52591;BME280;38483;42.620;25.394;2022-11-18T02:57:18;95994.75;;;7.75;89.21
52591;BME280;38483;42.620;25.394;2022-11-18T02:59:46;95985.69;;;7.68;89.43
52591;BME280;38483;42.620;25.394;2022-11-18T03:02:15;96000.78;;;7.91;89.49
52591;BME280;38483;42.620;25.394;2022-11-18T03:04:45;95993.69;;;7.79;88.09
52591;BME280;38483;42.620;25.394;2022-11-18T03:09:46;96023.41;;;7.86;88.89
52591;BME280;38483;42.620;25.394;2022-11-18T03:15:20;96020.16;;;7.83;88.23
52591;BME280;38483;42.620;25.394;2022-11-18T03:18:02;96017.97;;;7.75;89.23
52591;BME280;38483;42.620;25.394;2022-11-18T03:20:57;96008.28;;;7.63;89.39
52591;BME280;38483;42.620;25.394;2022-11-18T03:23:37;96017.28;;;7.72;90.48
52591;BME280;38483;42.620;25.394;2022-11-18T03:26:10;96016.31;;;7.74;89.34
52591;BME280;38483;42.620;25.394;2022-11-18T03:29:00;96019.06;;;7.54;88.66
52591;BME280;38483;42.620;25.394;2022-11-18T03:31:49;96021.63;;;7.37;89.49
52591;BME280;38483;42.620;25.394;2022-11-18T03:34:33;96021.78;;;7.34;89.46
52591;BME280;38483;42.620;25.394;2022-11-18T03:37:05;96018.59;;;7.29;89.40
52591;BME280;38483;42.620;25.394;2022-11-18T03:39:39;96014.66;;;7.22;90.09
52591;BME280;38483;42.620;25.394;2022-11-18T03:42:24;96015.56;;;7.04;89.94
52591;BME280;38483;42.620;25.394;2022-11-18T03:44:57;96012.97;;;7.04;91.00
52591;BME280;38483;42.620;25.394;2022-11-18T03:47:34;96018.25;;;7.01;91.45
52591;BME280;38483;42.620;25.394;2022-11-18T03:50:12;96013.13;;;6.84;92.29
52591;BME280;38483;42.620;25.394;2022-11-18T03:52:40;96013.13;;;6.84;93.05
52591;BME280;38483;42.620;25.394;2022-11-18T03:55:13;96012.94;;;6.87;94.37
52591;BME280;38483;42.620;25.394;2022-11-18T03:57:47;96023.72;;;6.95;95.96
52591;BME280;38483;42.620;25.394;2022-11-18T04:00:17;96023.66;;;6.96;95.62
52591;BME280;38483;42.620;25.394;2022-11-18T04:02:48;96035.28;;;6.86;95.56
52591;BME280;38483;42.620;25.394;2022-11-18T04:05:17;96037.03;;;6.86;95.72
52591;BME280;38483;42.620;25.394;2022-11-18T04:07:50;96043.50;;;6.94;95.28
52591;BME280;38483;42.620;25.394;2022-11-18T04:10:23;96036.28;;;6.84;95.59
52591;BME280;38483;42.620;25.394;2022-11-18T04:13:21;96048.09;;;7.05;96.18
52591;BME280;38483;42.620;25.394;2022-11-18T04:15:49;96017.00;;;6.92;95.42
52591;BME280;38483;42.620;25.394;2022-11-18T04:18:17;96050.41;;;7.11;94.96
52591;BME280;38483;42.620;25.394;2022-11-18T04:20:43;96038.13;;;7.16;95.11
52591;BME280;38483;42.620;25.394;2022-11-18T04:23:11;96039.50;;;7.23;94.52
52591;BME280;38483;42.620;25.394;2022-11-18T04:25:38;96041.03;;;7.27;93.86
52591;BME280;38483;42.620;25.394;2022-11-18T04:28:05;96045.16;;;7.29;92.26
52591;BME280;38483;42.620;25.394;2022-11-18T04:30:32;96049.75;;;7.42;91.83
52591;BME280;38483;42.620;25.394;2022-11-18T04:32:59;96045.41;;;7.42;92.18
52591;BME280;38483;42.620;25.394;2022-11-18T04:35:26;96050.13;;;7.51;91.91
52591;BME280;38483;42.620;25.394;2022-11-18T04:37:53;96051.19;;;7.64;90.87
52591;BME280;38483;42.620;25.394;2022-11-18T04:40:20;96046.47;;;7.55;90.51
52591;BME280;38483;42.620;25.394;2022-11-18T04:42:47;96057.59;;;7.38;89.82
52591;BME280;38483;42.620;25.394;2022-11-18T04:45:14;96051.94;;;7.49;90.23
52591;BME280;38483;42.620;25.394;2022-11-18T04:47:42;96042.69;;;7.45;89.62
52591;BME280;38483;42.620;25.394;2022-11-18T04:50:09;96048.59;;;7.47;88.53
52591;BME280;38483;42.620;25.394;2022-11-18T04:52:36;96051.63;;;7.55;88.71
52591;BME280;38483;42.620;25.394;2022-11-18T04:55:03;96050.56;;;7.59;88.20
52591;BME280;38483;42.620;25.394;2022-11-18T04:57:30;96055.63;;;7.61;87.40
52591;BME280;38483;42.620;25.394;2022-11-18T04:59:57;96042.47;;;7.50;86.99
52591;BME280;38483;42.620;25.394;2022-11-18T05:02:23;96053.00;;;7.45;86.96
52591;BME280;38483;42.620;25.394;2022-11-18T05:04:50;96054.59;;;7.48;87.93
52591;BME280;38483;42.620;25.394;2022-11-18T05:07:17;96054.81;;;7.60;87.08
52591;BME280;38483;42.620;25.394;2022-11-18T05:09:45;96057.53;;;7.40;85.43
52591;BME280;38483;42.620;25.394;2022-11-18T05:12:13;96056.06;;;7.17;86.12
52591;BME280;38483;42.620;25.394;2022-11-18T05:14:59;96049.91;;;6.86;86.97
52591;BME280;38483;42.620;25.394;2022-11-18T05:17:28;96070.59;;;6.83;86.88
52591;BME280;38483;42.620;25.394;2022-11-18T05:19:55;96068.22;;;6.97;86.80
52591;BME280;38483;42.620;25.394;2022-11-18T05:22:22;96044.75;;;6.86;86.04
52591;BME280;38483;42.620;25.394;2022-11-18T05:24:49;96062.09;;;6.99;86.88
52591;BME280;38483;42.620;25.394;2022-11-18T05:27:16;96060.28;;;7.01;87.00
52591;BME280;38483;42.620;25.394;2022-11-18T05:29:43;96069.50;;;6.88;86.52
52591;BME280;38483;42.620;25.394;2022-11-18T05:32:10;96046.09;;;6.76;86.27
52591;BME280;38483;42.620;25.394;2022-11-18T05:34:39;96074.09;;;6.82;87.21
52591;BME280;38483;42.620;25.394;2022-11-18T05:37:06;96074.59;;;6.52;88.47
52591;BME280;38483;42.620;25.394;2022-11-18T05:39:33;96064.50;;;6.48;89.13
52591;BME280;38483;42.620;25.394;2022-11-18T05:42:02;96060.81;;;6.53;89.03
52591;BME280;38483;42.620;25.394;2022-11-18T05:44:49;96076.97;;;6.76;88.79
52591;BME280;38483;42.620;25.394;2022-11-18T05:47:24;96077.28;;;6.87;88.98
52591;BME280;38483;42.620;25.394;2022-11-18T05:49:51;96076.31;;;6.89;88.68
52591;BME280;38483;42.620;25.394;2022-11-18T05:52:17;96074.88;;;7.01;88.40
52591;BME280;38483;42.620;25.394;2022-11-18T05:54:48;96083.94;;;6.91;88.16
52591;BME280;38483;42.620;25.394;2022-11-18T05:57:15;96092.72;;;6.87;89.48
52591;BME280;38483;42.620;25.394;2022-11-18T05:59:42;96065.34;;;6.67;89.14
52591;BME280;38483;42.620;25.394;2022-11-18T06:02:20;96077.00;;;6.55;90.48
52591;BME280;38483;42.620;25.394;2022-11-18T06:04:55;96079.56;;;6.37;93.08
52591;BME280;38483;42.620;25.394;2022-11-18T06:07:32;96065.34;;;6.30;95.12
52591;BME280;38483;42.620;25.394;2022-11-18T06:10:01;96075.94;;;6.61;95.31
52591;BME280;38483;42.620;25.394;2022-11-18T06:12:38;96082.91;;;6.76;95.28
52591;BME280;38483;42.620;25.394;2022-11-18T06:15:20;96077.16;;;7.07;94.83
52591;BME280;38483;42.620;25.394;2022-11-18T06:17:53;96073.88;;;7.22;93.55
52591;BME280;38483;42.620;25.394;2022-11-18T06:20:23;96062.84;;;7.37;91.92
52591;BME280;38483;42.620;25.394;2022-11-18T06:22:53;96071.31;;;7.39;90.81
52591;BME280;38483;42.620;25.394;2022-11-18T06:25:21;96062.69;;;7.40;90.36
52591;BME280;38483;42.620;25.394;2022-11-18T06:27:49;96035.47;;;7.17;90.51
52591;BME280;38483;42.620;25.394;2022-11-18T06:30:17;96075.50;;;7.42;91.15
52591;BME280;38483;42.620;25.394;2022-11-18T06:32:44;96076.63;;;7.53;91.54
52591;BME280;38483;42.620;25.394;2022-11-18T06:35:12;96070.41;;;7.74;90.49
52591;BME280;38483;42.620;25.394;2022-11-18T06:37:39;96083.66;;;7.84;89.75
52591;BME280;38483;42.620;25.394;2022-11-18T06:40:06;96084.72;;;7.80;89.49
52591;BME280;38483;42.620;25.394;2022-11-18T06:42:34;96076.47;;;7.90;89.60
52591;BME280;38483;42.620;25.394;2022-11-18T06:45:20;96083.22;;;7.93;89.85
52591;BME280;38483;42.620;25.394;2022-11-18T06:47:47;96096.91;;;7.93;89.52
52591;BME280;38483;42.620;25.394;2022-11-18T06:50:15;96077.34;;;8.06;89.20
52591;BME280;38483;42.620;25.394;2022-11-18T06:52:42;96079.25;;;8.03;89.70
52591;BME280;38483;42.620;25.394;2022-11-18T06:55:09;96067.25;;;8.02;90.08
52591;BME280;38483;42.620;25.394;2022-11-18T06:57:38;96081.34;;;8.12;90.58
52591;BME280;38483;42.620;25.394;2022-11-18T07:00:06;96062.53;;;8.27;90.12
52591;BME280;38483;42.620;25.394;2022-11-18T07:02:36;96071.69;;;8.65;89.72
52591;BME280;38483;42.620;25.394;2022-11-18T07:05:05;96075.81;;;8.99;88.10
52591;BME280;38483;42.620;25.394;2022-11-18T07:07:35;96073.56;;;9.24;87.17
52591;BME280;38483;42.620;25.394;2022-11-18T07:10:08;96064.06;;;9.54;85.94
52591;BME280;38483;42.620;25.394;2022-11-18T07:12:35;96068.75;;;9.77;85.32
52591;BME280;38483;42.620;25.394;2022-11-18T07:15:02;96057.41;;;9.94;84.60
52591;BME280;38483;42.620;25.394;2022-11-18T07:17:30;96047.34;;;9.90;84.35
52591;BME280;38483;42.620;25.394;2022-11-18T07:19:57;96049.19;;;9.88;84.91
52591;BME280;38483;42.620;25.394;2022-11-18T07:22:24;96055.78;;;10.07;84.76
52591;BME280;38483;42.620;25.394;2022-11-18T07:24:51;96050.53;;;10.23;85.06
52591;BME280;38483;42.620;25.394;2022-11-18T07:27:18;96054.81;;;10.38;84.77
52591;BME280;38483;42.620;25.394;2022-11-18T07:29:56;96050.34;;;10.54;83.94
52591;BME280;38483;42.620;25.394;2022-11-18T07:32:49;96057.47;;;10.64;83.78
52591;BME280;38483;42.620;25.394;2022-11-18T07:35:17;96037.41;;;10.54;83.99
52591;BME280;38483;42.620;25.394;2022-11-18T07:37:45;96053.44;;;10.87;83.75
52591;BME280;38483;42.620;25.394;2022-11-18T07:40:12;96055.25;;;10.99;83.23
52591;BME280;38483;42.620;25.394;2022-11-18T07:42:39;96047.13;;;10.91;83.43
52591;BME280;38483;42.620;25.394;2022-11-18T07:45:21;96037.63;;;10.92;84.15
52591;BME280;38483;42.620;25.394;2022-11-18T07:47:50;96051.66;;;11.02;83.66
52591;BME280;38483;42.620;25.394;2022-11-18T07:50:18;96045.06;;;11.10;83.33
52591;BME280;38483;42.620;25.394;2022-11-18T07:52:45;96007.72;;;11.00;83.46
52591;BME280;38483;42.620;25.394;2022-11-18T07:55:12;96028.22;;;11.03;84.06
52591;BME280;38483;42.620;25.394;2022-11-18T07:57:40;96042.94;;;11.29;83.21
52591;BME280;38483;42.620;25.394;2022-11-18T08:00:09;96046.22;;;11.45;82.95
52591;BME280;38483;42.620;25.394;2022-11-18T08:02:38;96054.75;;;11.60;82.34
52591;BME280;38483;42.620;25.394;2022-11-18T08:05:05;96044.75;;;11.68;81.79
52591;BME280;38483;42.620;25.394;2022-11-18T08:07:40;96053.47;;;11.80;81.95
52591;BME280;38483;42.620;25.394;2022-11-18T08:10:08;96048.50;;;12.02;80.69
52591;BME280;38483;42.620;25.394;2022-11-18T08:12:36;96044.25;;;12.01;80.91
52591;BME280;38483;42.620;25.394;2022-11-18T08:15:03;96039.88;;;12.14;80.34
52591;BME280;38483;42.620;25.394;2022-11-18T08:17:31;96040.72;;;12.27;79.77
52591;BME280;38483;42.620;25.394;2022-11-18T08:19:58;96034.69;;;12.39;79.04
52591;BME280;38483;42.620;25.394;2022-11-18T08:22:25;96041.13;;;12.59;78.69
52591;BME280;38483;42.620;25.394;2022-11-18T08:24:52;96041.00;;;12.60;78.44
52591;BME280;38483;42.620;25.394;2022-11-18T08:27:19;96036.97;;;12.56;79.18
52591;BME280;38483;42.620;25.394;2022-11-18T08:29:47;96029.34;;;12.53;78.65
52591;BME280;38483;42.620;25.394;2022-11-18T08:32:14;96011.69;;;12.71;78.63
52591;BME280;38483;42.620;25.394;2022-11-18T08:34:41;96024.81;;;12.93;78.12
52591;BME280;38483;42.620;25.394;2022-11-18T08:37:08;96018.56;;;12.95;77.83
52591;BME280;38483;42.620;25.394;2022-11-18T08:39:37;96018.00;;;13.16;77.46
52591;BME280;38483;42.620;25.394;2022-11-18T08:42:08;96028.91;;;13.21;76.83
52591;BME280;38483;42.620;25.394;2022-11-18T08:44:39;96031.13;;;13.25;77.10
52591;BME280;38483;42.620;25.394;2022-11-18T08:47:06;96024.91;;;13.28;77.57
52591;BME280;38483;42.620;25.394;2022-11-18T08:49:34;96007.66;;;13.27;77.40
52591;BME280;38483;42.620;25.394;2022-11-18T08:52:02;96027.22;;;13.43;77.57
52591;BME280;38483;42.620;25.394;2022-11-18T08:54:31;96023.78;;;13.43;76.88
52591;BME280;38483;42.620;25.394;2022-11-18T08:57:08;96024.06;;;13.51;76.66
52591;BME280;38483;42.620;25.394;2022-11-18T08:59:37;96017.63;;;13.67;77.02
52591;BME280;38483;42.620;25.394;2022-11-18T09:02:04;96023.41;;;13.71;76.56
52591;BME280;38483;42.620;25.394;2022-11-18T09:04:32;96015.47;;;13.72;76.52
52591;BME280;38483;42.620;25.394;2022-11-18T09:07:00;96012.78;;;13.85;76.55
52591;BME280;38483;42.620;25.394;2022-11-18T09:09:28;96012.25;;;13.93;75.90
52591;BME280;38483;42.620;25.394;2022-11-18T09:11:56;95995.53;;;13.95;76.02
52591;BME280;38483;42.620;25.394;2022-11-18T09:14:23;95996.63;;;14.04;76.09
52591;BME280;38483;42.620;25.394;2022-11-18T09:17:15;96002.44;;;14.07;76.50
52591;BME280;38483;42.620;25.394;2022-11-18T09:20:09;95997.25;;;14.07;76.15
52591;BME280;38483;42.620;25.394;2022-11-18T09:22:36;95989.66;;;14.26;75.68
52591;BME280;38483;42.620;25.394;2022-11-18T09:25:05;95976.88;;;14.23;75.77
52591;BME280;38483;42.620;25.394;2022-11-18T09:27:33;95990.03;;;14.22;75.53
52591;BME280;38483;42.620;25.394;2022-11-18T09:30:00;95994.91;;;14.37;75.70
52591;BME280;38483;42.620;25.394;2022-11-18T09:32:32;95982.81;;;14.25;75.16
52591;BME280;38483;42.620;25.394;2022-11-18T09:35:04;95979.28;;;14.48;74.33
52591;BME280;38483;42.620;25.394;2022-11-18T09:37:32;95987.56;;;14.53;74.44
52591;BME280;38483;42.620;25.394;2022-11-18T09:40:18;95991.78;;;14.65;74.73
52591;BME280;38483;42.620;25.394;2022-11-18T09:43:12;95987.06;;;14.82;74.68
52591;BME280;38483;42.620;25.394;2022-11-18T09:45:55;95995.72;;;14.71;74.22
52591;BME280;38483;42.620;25.394;2022-11-18T09:48:48;95980.41;;;14.78;74.65
52591;BME280;38483;42.620;25.394;2022-11-18T09:51:39;95962.91;;;14.24;74.60
52591;BME280;38483;42.620;25.394;2022-11-18T09:54:23;95962.94;;;14.35;74.63
52591;BME280;38483;42.620;25.394;2022-11-18T09:56:53;95946.00;;;14.63;73.94
52591;BME280;38483;42.620;25.394;2022-11-18T09:59:25;95947.50;;;14.65;72.95
52591;BME280;38483;42.620;25.394;2022-11-18T10:05:49;95930.59;;;14.60;74.08
52591;BME280;38483;42.620;25.394;2022-11-18T10:08:27;95923.56;;;14.72;73.34
52591;BME280;38483;42.620;25.394;2022-11-18T10:11:57;95930.94;;;14.55;74.05
52591;BME280;38483;42.620;25.394;2022-11-18T10:17:52;95933.03;;;14.84;74.70
52591;BME280;38483;42.620;25.394;2022-11-18T10:23:25;95913.88;;;14.94;73.47
52591;BME280;38483;42.620;25.394;2022-11-18T10:25:55;95896.84;;;14.90;72.78
52591;BME280;38483;42.620;25.394;2022-11-18T10:28:25;95905.16;;;15.16;72.26
52591;BME280;38483;42.620;25.394;2022-11-18T10:31:07;95895.03;;;15.02;72.58
52591;BME280;38483;42.620;25.394;2022-11-18T10:33:35;95894.41;;;15.09;72.95
52591;BME280;38483;42.620;25.394;2022-11-18T10:36:26;95897.72;;;15.11;73.03
52591;BME280;38483;42.620;25.394;2022-11-18T10:39:12;95872.16;;;15.26;72.12
52591;BME280;38483;42.620;25.394;2022-11-18T10:41:46;95878.53;;;15.33;71.70
52591;BME280;38483;42.620;25.394;2022-11-18T10:44:35;95861.09;;;15.54;71.54
52591;BME280;38483;42.620;25.394;2022-11-18T10:47:29;95871.25;;;15.48;72.57
52591;BME280;38483;42.620;25.394;2022-11-18T10:50:09;95858.94;;;15.59;72.41
52591;BME280;38483;42.620;25.394;2022-11-18T10:52:52;95871.81;;;15.51;72.08
52591;BME280;38483;42.620;25.394;2022-11-18T10:55:22;95832.28;;;15.35;72.53
52591;BME280;38483;42.620;25.394;2022-11-18T10:58:06;95850.84;;;15.62;72.57
52591;BME280;38483;42.620;25.394;2022-11-18T11:00:46;95843.38;;;15.78;71.86
52591;BME280;38483;42.620;25.394;2022-11-18T11:09:02;95830.97;;;15.71;72.38
52591;BME280;38483;42.620;25.394;2022-11-18T11:11:41;95838.75;;;15.61;72.24
52591;BME280;38483;42.620;25.394;2022-11-18T11:14:50;95843.16;;;15.91;71.77
52591;BME280;38483;42.620;25.394;2022-11-18T11:17:41;95833.81;;;15.98;70.90
52591;BME280;38483;42.620;25.394;2022-11-18T11:20:19;95837.16;;;16.09;71.68
52591;BME280;38483;42.620;25.394;2022-11-18T11:22:50;95848.03;;;16.14;72.00
52591;BME280;38483;42.620;25.394;2022-11-18T11:25:43;95838.28;;;16.16;72.83
52591;BME280;38483;42.620;25.394;2022-11-18T11:28:41;95812.00;;;15.99;73.27
52591;BME280;38483;42.620;25.394;2022-11-18T11:37:00;95837.50;;;16.25;72.79
52591;BME280;38483;42.620;25.394;2022-11-18T11:42:50;95845.59;;;16.22;72.90
52591;BME280;38483;42.620;25.394;2022-11-18T11:48:23;95832.22;;;16.16;73.20
52591;BME280;38483;42.620;25.394;2022-11-18T11:56:30;95832.97;;;16.47;72.60
52591;BME280;38483;42.620;25.394;2022-11-18T11:59:28;95820.00;;;16.16;72.74
52591;BME280;38483;42.620;25.394;2022-11-18T12:04:52;95828.03;;;16.34;72.48
52591;BME280;38483;42.620;25.394;2022-11-18T12:07:31;95813.03;;;16.36;72.60
52591;BME280;38483;42.620;25.394;2022-11-18T12:10:27;95821.91;;;16.54;71.68
52591;BME280;38483;42.620;25.394;2022-11-18T12:19:02;95828.91;;;16.14;72.50
52591;BME280;38483;42.620;25.394;2022-11-18T12:24:24;95824.56;;;16.34;72.00
52591;BME280;38483;42.620;25.394;2022-11-18T12:26:53;95802.50;;;16.57;71.47
52591;BME280;38483;42.620;25.394;2022-11-18T12:31:52;95784.88;;;16.49;71.81
52591;BME280;38483;42.620;25.394;2022-11-18T12:39:58;95771.78;;;16.40;71.96
52591;BME280;38483;42.620;25.394;2022-11-18T12:42:43;95769.03;;;16.51;71.65
52591;BME280;38483;42.620;25.394;2022-11-18T12:48:31;95774.97;;;16.53;71.38
52591;BME280;38483;42.620;25.394;2022-11-18T12:53:51;95760.69;;;16.57;70.58
52591;BME280;38483;42.620;25.394;2022-11-18T12:56:22;95761.63;;;16.65;70.25
52591;BME280;38483;42.620;25.394;2022-11-18T12:58:52;95740.72;;;16.56;69.94
52591;BME280;38483;42.620;25.394;2022-11-18T13:01:24;95753.09;;;16.73;68.43
52591;BME280;38483;42.620;25.394;2022-11-18T13:04:10;95711.25;;;16.63;67.55
52591;BME280;38483;42.620;25.394;2022-11-18T13:06:38;95740.16;;;16.81;66.94
52591;BME280;38483;42.620;25.394;2022-11-18T13:09:14;95748.13;;;16.89;66.01
52591;BME280;38483;42.620;25.394;2022-11-18T13:11:50;95748.09;;;17.08;66.50
52591;BME280;38483;42.620;25.394;2022-11-18T13:14:24;95733.88;;;17.10;65.71
52591;BME280;38483;42.620;25.394;2022-11-18T13:17:33;95738.03;;;17.13;66.63
52591;BME280;38483;42.620;25.394;2022-11-18T13:20:31;95731.31;;;17.01;66.29
52591;BME280;38483;42.620;25.394;2022-11-18T13:23:18;95726.09;;;16.82;67.08
52591;BME280;38483;42.620;25.394;2022-11-18T13:26:28;95716.88;;;16.78;66.67
52591;BME280;38483;42.620;25.394;2022-11-18T13:32:11;95708.66;;;16.63;67.58
52591;BME280;38483;42.620;25.394;2022-11-18T13:37:28;95685.69;;;16.57;67.49
52591;BME280;38483;42.620;25.394;2022-11-18T13:39:56;95701.63;;;16.73;67.75
52591;BME280;38483;42.620;25.394;2022-11-18T13:42:27;95700.13;;;16.71;67.62
52591;BME280;38483;42.620;25.394;2022-11-18T13:44:59;95706.84;;;16.73;67.40
52591;BME280;38483;42.620;25.394;2022-11-18T13:52:59;95700.00;;;16.53;69.32
52591;BME280;38483;42.620;25.394;2022-11-18T13:55:31;95696.25;;;16.37;69.99
52591;BME280;38483;42.620;25.394;2022-11-18T13:58:03;95693.38;;;16.20;70.38
52591;BME280;38483;42.620;25.394;2022-11-18T14:00:34;95699.97;;;16.24;71.12
52591;BME280;38483;42.620;25.394;2022-11-18T14:03:25;95700.53;;;16.18;71.73
52591;BME280;38483;42.620;25.394;2022-11-18T14:05:54;95716.06;;;16.01;72.84
52591;BME280;38483;42.620;25.394;2022-11-18T14:08:33;95726.06;;;16.05;72.94
52591;BME280;38483;42.620;25.394;2022-11-18T14:11:03;95718.66;;;16.10;73.21
52591;BME280;38483;42.620;25.394;2022-11-18T14:13:33;95718.13;;;16.07;73.34
52591;BME280;38483;42.620;25.394;2022-11-18T14:16:28;95723.75;;;16.12;73.13
52591;BME280;38483;42.620;25.394;2022-11-18T14:18:51;95725.00;;;16.17;73.09
52591;BME280;38483;42.620;25.394;2022-11-18T14:23:56;95714.13;;;16.03;73.61
52591;BME280;38483;42.620;25.394;2022-11-18T14:26:34;95718.78;;;15.99;73.85
52591;BME280;38483;42.620;25.394;2022-11-18T14:29:14;95725.38;;;16.03;74.64
52591;BME280;38483;42.620;25.394;2022-11-18T14:32:14;95738.97;;;15.97;74.61
52591;BME280;38483;42.620;25.394;2022-11-18T14:34:41;95722.47;;;15.87;75.92
52591;BME280;38483;42.620;25.394;2022-11-18T14:37:10;95715.47;;;15.88;75.83
52591;BME280;38483;42.620;25.394;2022-11-18T14:39:39;95709.00;;;15.82;75.26
52591;BME280;38483;42.620;25.394;2022-11-18T14:42:11;95696.50;;;15.76;75.63
52591;BME280;38483;42.620;25.394;2022-11-18T14:44:59;95710.88;;;15.71;76.37
52591;BME280;38483;42.620;25.394;2022-11-18T14:47:59;95698.69;;;15.71;76.37
52591;BME280;38483;42.620;25.394;2022-11-18T14:50:27;95682.31;;;15.69;76.57
52591;BME280;38483;42.620;25.394;2022-11-18T14:52:54;95688.53;;;15.68;76.83
52591;BME280;38483;42.620;25.394;2022-11-18T14:55:21;95691.38;;;15.65;77.06
52591;BME280;38483;42.620;25.394;2022-11-18T14:57:48;95659.56;;;15.41;77.46
52591;BME280;38483;42.620;25.394;2022-11-18T15:00:16;95685.53;;;15.42;77.89
52591;BME280;38483;42.620;25.394;2022-11-18T15:02:43;95689.53;;;15.46;77.96
52591;BME280;38483;42.620;25.394;2022-11-18T15:05:10;95686.75;;;15.38;78.47
52591;BME280;38483;42.620;25.394;2022-11-18T15:08:01;95695.66;;;15.36;78.38